Time;durP1;ratioP1;P1;durP2;ratioP2;P2;SDS_P1;SDS_P2;PMS_P1;PMS_P2;Temp;Humidity;BMP_temperature;BMP_pressure;BME280_temperature;BME280_humidity;BME280_pressure;Samples;Min_cycle;Max_cycle;Signal;HPM_P1;HPM_P2
2022/10/28 00:01:24;;;;;;;7.13;4.90;;;15.00;99.90;;;-141.84;82.62;18271.59;5032145;28;20233;-60
2022/10/28 00:03:57;;;;;;;6.72;4.90;;;14.90;99.90;;;-141.84;82.51;18253.31;5032237;28;20237;-59
2022/10/28 00:06:28;;;;;;;9.40;5.47;;;14.90;99.90;;;-141.84;82.02;18255.34;5031975;28;20272;-59
2022/10/28 00:08:58;;;;;;;6.60;4.78;;;15.00;99.90;;;-141.84;81.50;18257.38;5032091;28;20859;-59
2022/10/28 00:11:29;;;;;;;6.63;4.90;;;14.90;99.90;;;-141.84;81.77;18285.81;5032278;28;20273;-60
2022/10/28 00:14:00;;;;;;;8.70;5.00;;;15.00;99.90;;;-141.84;81.26;18273.63;5032722;28;20218;-60
2022/10/28 00:16:31;;;;;;;6.75;5.10;;;15.00;99.90;;;-141.84;81.32;18293.94;5032262;28;20639;-60
2022/10/28 00:19:02;;;;;;;5.43;4.47;;;15.00;99.90;;;-141.84;81.30;18251.28;5031931;28;20217;-59
2022/10/28 00:21:35;;;;;;;5.78;4.68;;;15.00;99.90;;;-141.84;81.33;18285.81;5031629;28;20226;-60
2022/10/28 00:24:04;;;;;;;6.30;5.18;;;15.00;99.90;;;-141.84;81.24;18255.34;5032013;28;20225;-59
2022/10/28 00:26:35;;;;;;;6.88;4.22;;;15.00;99.90;;;-141.84;81.12;18275.66;5031595;28;20629;-60
2022/10/28 00:29:06;;;;;;;6.50;4.93;;;15.00;99.90;;;-141.84;81.07;18265.50;5031616;28;20222;-59
2022/10/28 00:31:36;;;;;;;8.50;4.57;;;15.00;99.90;;;-141.84;81.01;18261.44;5031966;28;20763;-60
2022/10/28 00:34:09;;;;;;;6.75;5.32;;;15.10;99.90;;;-141.84;80.38;18255.34;5031449;28;20229;-59
2022/10/28 00:36:40;;;;;;;8.05;4.93;;;15.00;99.90;;;-141.84;79.85;18302.06;5031497;28;20284;-60
2022/10/28 00:39:12;;;;;;;6.97;4.78;;;15.10;99.90;;;-141.84;79.62;18271.59;5031490;28;20237;-59
2022/10/28 00:41:45;;;;;;;6.18;4.38;;;15.10;99.90;;;-141.84;79.61;18298.00;5031292;28;20712;-59
2022/10/28 00:44:57;;;;;;;7.80;5.10;;;15.10;99.90;;;-141.84;79.50;18316.28;5030703;28;20225;-60
2022/10/28 00:47:38;;;;;;;8.52;4.90;;;15.10;99.90;;;-141.84;79.35;18332.53;4993579;28;20273;-59
2022/10/28 00:50:20;;;;;;;6.35;4.40;;;15.10;99.90;;;-141.84;79.17;18312.22;5019098;28;20206;-59
2022/10/28 00:52:55;;;;;;;6.80;5.05;;;15.10;99.90;;;-141.84;79.40;18316.28;5031868;28;20226;-59
2022/10/28 00:55:24;;;;;;;6.72;4.88;;;15.10;99.90;;;-141.84;79.10;18344.72;5031219;28;20233;-59
2022/10/28 00:57:55;;;;;;;6.03;4.65;;;15.10;99.90;;;-141.84;79.28;18312.22;5031259;28;20622;-59
2022/10/28 01:00:25;;;;;;;6.68;4.40;;;15.10;99.90;;;-141.84;78.93;18356.91;5031076;28;20660;-59
2022/10/28 01:02:53;;;;;;;11.13;5.10;;;15.20;99.90;;;-141.84;77.97;18379.25;5031421;28;20230;-59
2022/10/28 01:05:27;;;;;;;6.68;4.85;;;15.20;99.90;;;-141.84;77.66;18393.47;5031322;28;20221;-60
2022/10/28 01:08:00;;;;;;;5.57;4.28;;;15.20;99.90;;;-141.84;77.58;18381.28;5031841;28;20720;-59
2022/10/28 01:10:47;;;;;;;5.40;4.43;;;15.30;99.90;;;-141.84;78.06;18373.16;5030641;28;20218;-59
2022/10/28 01:13:33;;;;;;;4.97;4.30;;;15.20;99.90;;;-141.84;78.41;18352.84;5030625;28;20233;-59
2022/10/28 01:16:17;;;;;;;5.97;4.18;;;15.20;99.90;;;-141.84;78.47;18389.41;5030753;28;20311;-58
2022/10/28 01:19:07;;;;;;;9.07;4.65;;;15.20;99.90;;;-141.84;78.54;18371.13;5030933;28;20230;-59
2022/10/28 01:22:12;;;;;;;8.90;5.47;;;15.20;99.90;;;-141.84;78.46;18365.03;5030884;28;20225;-59
2022/10/28 01:25:14;;;;;;;6.22;4.63;;;15.20;99.90;;;-141.84;78.38;18389.41;5030876;28;20279;-60
2022/10/28 01:28:26;;;;;;;5.90;4.13;;;15.20;99.90;;;-141.84;78.26;18365.03;5030657;28;20221;-59
2022/10/28 01:31:18;;;;;;;8.98;4.20;;;15.20;99.90;;;-141.84;78.22;18401.59;5028389;28;20237;-59
2022/10/28 01:33:53;;;;;;;8.85;5.03;;;15.20;99.90;;;-141.84;78.41;18405.66;5031021;28;20233;-58
2022/10/28 01:36:36;;;;;;;4.65;4.07;;;15.20;99.90;;;-141.84;78.41;18423.94;5030389;28;20368;-58
2022/10/28 01:39:19;;;;;;;7.78;5.10;;;15.20;99.90;;;-141.84;78.23;18383.31;5030327;28;20230;-61
2022/10/28 01:41:56;;;;;;;9.55;4.72;;;15.20;99.90;;;-141.84;78.34;18407.69;5030824;28;20450;-60
2022/10/28 01:44:30;;;;;;;6.25;4.50;;;15.20;99.90;;;-141.84;78.16;18393.47;5030654;28;20186;-60
2022/10/28 01:47:10;;;;;;;7.60;4.75;;;15.20;99.90;;;-141.84;78.23;18387.38;5030867;28;20217;-59
2022/10/28 01:49:47;;;;;;;7.78;4.75;;;15.20;99.90;;;-141.84;77.62;18425.97;5030615;28;20229;-59
2022/10/28 01:52:22;;;;;;;7.05;4.88;;;15.20;99.90;;;-141.84;77.67;18446.31;5030762;28;20713;-59
2022/10/28 01:54:58;;;;;;;10.02;5.15;;;15.20;99.90;;;-141.84;77.71;18415.81;5030264;28;20759;-59
2022/10/28 01:57:30;;;;;;;7.25;4.90;;;15.20;99.90;;;-141.84;77.09;18421.91;5030372;28;20225;-60
2022/10/28 02:00:00;;;;;;;8.80;4.60;;;15.20;99.90;;;-141.84;77.32;18434.13;5030328;28;20732;-59
2022/10/28 02:02:32;;;;;;;5.80;4.50;;;15.20;99.90;;;-141.84;78.18;18403.63;5030441;28;20244;-57
2022/10/28 02:05:26;;;;;;;7.22;5.00;;;15.10;99.90;;;-141.84;78.76;18371.13;5030818;28;20213;-58
2022/10/28 02:08:04;;;;;;;5.95;4.35;;;15.10;99.90;;;-141.84;78.75;18395.50;5030343;28;20230;-59
2022/10/28 02:10:42;;;;;;;7.30;5.20;;;15.10;99.90;;;-141.84;79.19;18350.81;5030210;28;20230;-59
2022/10/28 02:13:14;;;;;;;8.85;5.00;;;15.00;99.90;;;-141.84;78.69;18346.75;5029702;28;20225;-59
2022/10/28 02:15:55;;;;;;;7.57;5.15;;;15.00;99.90;;;-141.84;78.75;18373.16;5030355;28;20246;-60
2022/10/28 02:18:39;;;;;;;6.80;4.72;;;15.00;99.90;;;-141.84;78.07;18395.50;5030347;28;20583;-59
2022/10/28 02:21:21;;;;;;;8.15;5.25;;;15.10;99.90;;;-141.84;78.13;18395.50;5029940;28;20641;-59
2022/10/28 02:23:58;;;;;;;5.35;4.47;;;15.10;99.90;;;-141.84;79.03;18371.13;5030213;28;20225;-59
2022/10/28 02:26:36;;;;;;;7.03;4.60;;;15.00;99.90;;;-141.84;79.77;18334.56;5030050;28;20689;-59
2022/10/28 02:29:15;;;;;;;7.50;4.93;;;14.80;99.90;;;-141.84;80.32;18363.00;5030603;28;20232;-59
2022/10/28 02:31:51;;;;;;;9.25;5.07;;;14.80;99.90;;;-141.84;80.78;18308.16;5030425;28;20218;-59
2022/10/28 02:34:28;;;;;;;6.05;5.00;;;14.70;99.90;;;-141.84;80.78;18306.13;5029988;28;20241;-59
2022/10/28 02:37:02;;;;;;;6.63;4.90;;;14.60;99.90;;;-141.84;81.27;18259.41;5030069;28;20225;-59
2022/10/28 02:39:38;;;;;;;10.88;5.60;;;14.60;99.90;;;-141.84;80.82;18257.38;5030001;28;20230;-59
2022/10/28 02:42:12;;;;;;;7.10;5.15;;;14.60;99.90;;;-141.84;80.45;18283.78;5030061;28;20221;-59
2022/10/28 02:44:47;;;;;;;6.93;4.32;;;14.60;99.90;;;-141.84;81.06;18224.84;5029902;28;20229;-59
2022/10/28 02:47:20;;;;;;;8.57;4.95;;;14.50;99.90;;;-141.84;81.45;18247.22;5030692;28;20228;-58
2022/10/28 02:49:59;;;;;;;8.07;5.10;;;14.40;99.90;;;-141.84;81.84;18224.84;5030091;28;20234;-58
2022/10/28 02:52:31;;;;;;;5.70;5.00;;;14.40;99.90;;;-141.84;81.98;18232.97;5031746;28;20225;-59
2022/10/28 02:55:03;;;;;;;5.25;4.63;;;14.40;99.90;;;-141.84;82.56;18202.50;5033689;28;20226;-59
2022/10/28 02:57:37;;;;;;;8.45;4.80;;;14.30;99.90;;;-141.84;82.82;18208.59;5033172;28;20322;-59
2022/10/28 03:00:10;;;;;;;7.03;4.72;;;14.20;99.90;;;-141.84;82.91;18174.06;5032999;28;20226;-60
2022/10/28 03:02:38;;;;;;;7.50;4.70;;;14.20;99.90;;;-141.84;83.07;18165.94;5033556;28;20237;-59
2022/10/28 03:05:09;;;;;;;6.03;4.40;;;14.10;99.90;;;-141.84;83.05;18172.03;5034103;28;20584;-58
2022/10/28 03:07:37;;;;;;;8.02;5.40;;;14.10;99.90;;;-141.84;83.31;18139.53;5032841;28;20226;-58
2022/10/28 03:10:06;;;;;;;7.47;5.60;;;14.10;99.90;;;-141.84;83.36;18157.81;5032627;28;20240;-59
2022/10/28 03:12:34;;;;;;;6.70;4.70;;;14.10;99.90;;;-141.84;83.55;18127.34;5033141;28;20234;-59
2022/10/28 03:15:03;;;;;;;8.57;4.65;;;14.00;99.90;;;-141.84;83.57;18159.84;5032798;28;20432;-59
2022/10/28 03:17:31;;;;;;;5.85;5.13;;;14.00;99.90;;;-141.84;83.73;18121.25;5032837;28;20690;-60
2022/10/28 03:19:59;;;;;;;5.88;4.68;;;14.00;99.90;;;-141.84;83.18;18139.53;5033593;28;20233;-60
2022/10/28 03:22:28;;;;;;;5.68;4.63;;;14.10;99.90;;;-141.84;83.31;18155.78;5033097;28;20230;-59
2022/10/28 03:24:56;;;;;;;8.15;5.60;;;14.00;99.90;;;-141.84;83.47;18139.53;5032881;28;20759;-60
2022/10/28 03:27:24;;;;;;;8.55;5.22;;;14.00;99.90;;;-141.84;83.54;18100.94;5032688;28;20222;-60
2022/10/28 03:29:52;;;;;;;9.60;5.45;;;14.00;99.90;;;-141.84;83.74;18098.91;5032761;28;20222;-60
2022/10/28 03:32:20;;;;;;;7.07;4.93;;;14.00;99.90;;;-141.84;83.45;18123.28;5032780;28;20237;-59
2022/10/28 03:34:53;;;;;;;7.50;4.97;;;14.10;99.90;;;-141.84;82.30;18131.41;5033030;28;20234;-60
2022/10/28 03:37:21;;;;;;;7.32;5.40;;;14.10;99.90;;;-141.84;82.28;18129.38;5032444;28;20230;-59
2022/10/28 03:39:50;;;;;;;8.02;5.10;;;14.10;99.90;;;-141.84;82.27;18159.84;5032806;28;20288;-59
2022/10/28 03:42:18;;;;;;;8.63;5.15;;;14.20;99.90;;;-141.84;81.74;18147.66;5032232;28;20713;-59
2022/10/28 03:44:46;;;;;;;6.55;4.80;;;14.20;99.90;;;-141.84;81.79;18170.00;5032563;28;20234;-58
2022/10/28 03:47:14;;;;;;;6.03;4.88;;;14.20;99.90;;;-141.84;82.05;18155.78;5032960;28;20276;-59
2022/10/28 03:49:42;;;;;;;6.85;5.18;;;14.20;99.90;;;-141.84;82.11;18170.00;5032568;28;20230;-59
2022/10/28 03:52:10;;;;;;;7.57;5.38;;;14.20;99.90;;;-141.84;81.66;18172.03;5032199;28;20299;-59
2022/10/28 03:54:38;;;;;;;8.07;5.30;;;14.30;99.90;;;-141.84;80.91;18186.25;5032345;28;20237;-58
2022/10/28 03:57:08;;;;;;;7.07;5.20;;;14.30;99.90;;;-141.84;79.35;18245.19;5032123;28;20230;-59
2022/10/28 03:59:36;;;;;;;8.23;5.05;;;14.40;99.90;;;-141.84;79.29;18265.50;5031868;28;20237;-59
2022/10/28 04:02:04;;;;;;;8.32;4.93;;;14.50;99.90;;;-141.84;79.26;18245.19;5032187;28;20226;-59
2022/10/28 04:04:32;;;;;;;5.57;4.65;;;14.50;99.90;;;-141.84;79.49;18279.72;5031674;28;20234;-59
2022/10/28 04:07:00;;;;;;;6.78;5.05;;;14.50;99.90;;;-141.84;79.99;18239.09;5032038;28;20233;-59
2022/10/28 04:09:28;;;;;;;10.75;5.50;;;14.50;99.90;;;-141.84;79.61;18287.84;5031987;28;20226;-59
2022/10/28 04:11:56;;;;;;;7.97;4.97;;;14.50;99.90;;;-141.84;79.60;18239.09;5031893;28;20226;-58
2022/10/28 04:14:25;;;;;;;6.60;5.18;;;14.50;99.90;;;-141.84;80.31;18212.66;5031985;28;20291;-59
2022/10/28 04:16:53;;;;;;;7.57;5.00;;;14.40;99.90;;;-141.84;81.11;18245.19;5032804;28;20222;-61
2022/10/28 04:19:21;;;;;;;10.35;5.70;;;14.30;99.90;;;-141.84;80.64;18204.53;5031674;28;20237;-58
2022/10/28 04:21:49;;;;;;;8.30;5.07;;;14.40;99.90;;;-141.84;80.10;18235.00;5031539;28;20233;-60
2022/10/28 04:24:17;;;;;;;7.80;5.07;;;14.40;99.90;;;-141.84;80.60;18224.84;5031491;28;20272;-59
2022/10/28 04:26:45;;;;;;;11.70;5.30;;;14.30;99.90;;;-141.84;81.11;18224.84;5031671;28;20241;-59
2022/10/28 04:29:13;;;;;;;7.55;5.28;;;14.30;99.90;;;-141.84;81.64;18206.56;5031923;28;20234;-60
2022/10/28 04:31:43;;;;;;;7.45;4.93;;;14.30;99.90;;;-141.84;81.54;18172.03;5031652;28;20234;-60
2022/10/28 04:34:14;;;;;;;10.40;5.07;;;14.20;99.90;;;-141.84;81.15;18208.59;5031639;28;20707;-59
2022/10/28 04:36:42;;;;;;;7.82;5.43;;;14.20;99.90;;;-141.84;78.96;18273.63;5031315;28;20222;-59
2022/10/28 04:39:10;;;;;;;8.10;5.18;;;14.40;99.90;;;-141.84;80.15;18188.28;5031290;28;20229;-59
2022/10/28 04:41:40;;;;;;;7.65;5.28;;;14.30;99.90;;;-141.84;80.75;18200.47;5031419;28;20308;-59
2022/10/28 04:44:08;;;;;;;6.97;5.00;;;14.30;99.90;;;-141.84;81.48;18212.66;5031877;28;20253;-60
2022/10/28 04:46:36;;;;;;;9.88;5.32;;;14.20;99.90;;;-141.84;81.47;18192.34;5031125;28;20234;-59
2022/10/28 04:49:06;;;;;;;9.95;6.10;;;14.10;99.90;;;-141.84;81.23;18235.00;5031090;28;20230;-60
2022/10/28 04:51:34;;;;;;;9.13;5.60;;;14.10;99.90;;;-141.84;81.95;18170.00;5030781;28;20677;-58
2022/10/28 04:54:02;;;;;;;9.55;5.20;;;14.10;99.90;;;-141.84;82.33;18141.56;5031118;28;20280;-59
2022/10/28 04:56:32;;;;;;;5.85;5.00;;;14.00;99.90;;;-141.84;82.59;18151.72;5031346;28;20218;-59
2022/10/28 04:59:00;;;;;;;8.63;5.28;;;13.90;99.90;;;-141.84;82.18;18157.81;5031197;28;20222;-59
2022/10/28 05:01:28;;;;;;;6.35;4.90;;;14.00;99.90;;;-141.84;82.55;18131.41;5030827;28;20227;-59
2022/10/28 05:03:56;;;;;;;5.90;5.10;;;14.00;99.90;;;-141.84;82.26;18139.53;5030845;28;20279;-60
2022/10/28 05:06:26;;;;;;;10.02;5.40;;;14.00;99.90;;;-141.84;80.60;18155.78;5031224;28;20241;-59
2022/10/28 05:08:54;;;;;;;10.18;9.25;;;14.10;99.90;;;-141.84;80.32;18251.28;5030855;28;20237;-58
2022/10/28 05:11:22;;;;;;;7.55;5.47;;;14.10;99.90;;;-141.84;81.15;18159.84;5031206;28;20214;-59
2022/10/28 05:13:51;;;;;;;8.00;5.50;;;14.10;99.90;;;-141.84;80.12;18212.66;5030609;28;20523;-60
2022/10/28 05:16:19;;;;;;;5.35;4.32;;;14.20;99.90;;;-141.84;80.50;18163.91;5030656;28;20233;-59
2022/10/28 05:18:48;;;;;;;8.63;5.38;;;14.20;99.90;;;-141.84;81.31;18139.53;5030844;28;20238;-59
2022/10/28 05:21:16;;;;;;;8.15;4.82;;;14.20;99.90;;;-141.84;81.91;18135.47;5030666;28;20303;-59
2022/10/28 05:23:46;;;;;;;7.90;5.82;;;14.10;99.90;;;-141.84;82.62;18129.38;5030295;28;20589;-59
2022/10/28 05:26:14;;;;;;;7.80;5.22;;;14.00;99.90;;;-141.84;83.07;18123.28;5031341;28;20214;-59
2022/10/28 05:28:43;;;;;;;11.13;5.75;;;13.90;99.90;;;-141.84;80.82;18226.88;5030432;28;20657;-60
2022/10/28 05:31:11;;;;;;;9.45;5.07;;;14.10;99.90;;;-141.84;81.38;18188.28;5030277;28;20229;-60
2022/10/28 05:33:39;;;;;;;5.95;5.10;;;14.00;99.90;;;-141.84;81.34;18186.25;5030298;28;20245;-60
2022/10/28 05:36:08;;;;;;;10.50;5.68;;;14.20;99.90;;;-141.84;80.74;18176.09;5030457;28;20348;-60
2022/10/28 05:38:36;;;;;;;9.57;5.43;;;14.20;99.90;;;-141.84;80.38;18200.47;5030594;28;20229;-60
2022/10/28 05:41:06;;;;;;;9.98;5.13;;;14.20;99.90;;;-141.84;80.91;18151.72;5031020;28;20221;-61
2022/10/28 05:43:34;;;;;;;6.38;5.45;;;14.00;99.90;;;-141.84;80.13;18202.50;5030505;28;20230;-58
2022/10/28 05:46:02;;;;;;;6.88;5.18;;;14.30;99.90;;;-141.84;80.53;18222.81;5030830;28;20724;-59
2022/10/28 05:48:31;;;;;;;12.07;5.80;;;14.30;99.90;;;-141.84;81.18;18170.00;5030642;28;20222;-60
2022/10/28 05:50:58;;;;;;;7.18;5.13;;;14.30;99.90;;;-141.84;81.02;18178.13;5030125;28;20272;-59
2022/10/28 05:53:26;;;;;;;8.00;5.68;;;14.30;99.90;;;-141.84;80.68;18194.38;5030673;28;20226;-59
2022/10/28 05:55:54;;;;;;;6.95;4.82;;;14.30;99.90;;;-141.84;80.46;18194.38;5031017;28;20272;-59
2022/10/28 05:58:24;;;;;;;7.57;5.38;;;14.30;99.90;;;-141.84;80.43;18226.88;5029676;28;20222;-58
2022/10/28 06:00:52;;;;;;;8.38;5.30;;;14.40;99.90;;;-141.84;80.52;18237.06;5029952;28;20713;-59
2022/10/28 06:03:20;;;;;;;8.57;4.93;;;14.40;99.90;;;-141.84;80.18;18188.28;5030260;28;20218;-60
2022/10/28 06:05:48;;;;;;;6.90;4.72;;;14.40;99.90;;;-141.84;80.18;18210.63;5029996;28;20236;-60
2022/10/28 06:08:16;;;;;;;5.95;4.40;;;14.40;99.90;;;-141.84;80.93;18200.47;5030753;28;20751;-59
2022/10/28 06:10:52;;;;;;;9.38;5.68;;;14.30;99.90;;;-141.84;81.43;18143.59;5030046;28;20229;-59
2022/10/28 06:13:20;;;;;;;8.70;5.10;;;14.20;99.90;;;-141.84;81.12;18180.16;5030111;28;20696;-60
2022/10/28 06:15:52;;;;;;;6.20;5.13;;;14.20;99.90;;;-141.84;81.08;18206.56;5029680;28;20656;-59
2022/10/28 06:18:21;;;;;;;8.88;5.53;;;14.20;99.90;;;-141.84;81.54;18174.06;5030289;28;20275;-59
2022/10/28 06:20:53;;;;;;;7.80;5.38;;;14.20;99.90;;;-141.84;81.87;18170.00;5030208;28;20226;-60
2022/10/28 06:23:22;;;;;;;7.63;5.07;;;14.20;99.90;;;-141.84;81.23;18178.13;5030453;28;20237;-59
2022/10/28 06:25:50;;;;;;;8.07;5.07;;;14.10;99.90;;;-141.84;81.83;18188.28;5031742;28;20183;-62
2022/10/28 06:28:18;;;;;;;5.15;4.65;;;14.10;99.90;;;-141.84;82.33;18165.94;5034037;28;20226;-60
2022/10/28 06:30:46;;;;;;;8.45;5.55;;;14.10;99.90;;;-141.84;82.33;18145.63;5035193;28;20238;-59
2022/10/28 06:33:15;;;;;;;9.18;5.53;;;14.10;99.90;;;-141.84;81.51;18190.31;5034323;28;20280;-59
2022/10/28 06:35:44;;;;;;;7.28;5.53;;;14.10;99.90;;;-141.84;81.48;18141.56;5033938;28;20782;-59
2022/10/28 06:38:12;;;;;;;12.18;5.10;;;14.20;99.90;;;-141.84;81.84;18159.84;5034714;28;20222;-59
2022/10/28 06:40:40;;;;;;;8.82;5.47;;;14.20;99.90;;;-141.84;81.93;18139.53;5034073;28;20238;-59
2022/10/28 06:43:11;;;;;;;7.82;5.32;;;14.20;99.90;;;-141.84;81.15;18119.22;5033898;28;20221;-61
2022/10/28 06:45:39;;;;;;;6.75;5.55;;;14.30;99.90;;;-141.84;80.62;18190.31;5033665;28;20226;-59
2022/10/28 06:48:07;;;;;;;7.72;4.80;;;14.40;99.90;;;-141.84;80.63;18220.78;5033984;28;20713;-59
2022/10/28 06:50:37;;;;;;;6.35;4.93;;;14.40;99.90;;;-141.84;80.44;18194.38;5033113;28;20621;-59
2022/10/28 06:53:05;;;;;;;11.50;5.15;;;14.50;99.90;;;-141.84;79.89;18206.56;5033938;28;20290;-59
2022/10/28 06:55:33;;;;;;;10.65;5.60;;;14.60;99.90;;;-141.84;79.24;18237.06;5013401;28;20289;-60
2022/10/28 06:58:03;;;;;;;6.72;5.03;;;14.70;99.90;;;-141.84;78.61;18251.28;5013571;28;20223;-59
2022/10/28 07:00:33;;;;;;;6.72;5.13;;;14.80;99.90;;;-141.84;77.27;18330.50;5013552;28;20353;-60
2022/10/28 07:03:01;;;;;;;5.65;4.47;;;14.90;99.90;;;-141.84;76.09;18375.19;5013341;28;20227;-59
2022/10/28 07:05:29;;;;;;;7.35;4.55;;;15.00;99.90;;;-141.84;74.38;18444.28;5013426;28;20635;-59
2022/10/28 07:07:58;;;;;;;7.20;4.47;;;15.20;99.90;;;-141.84;74.74;18423.94;5050883;28;20253;-60
2022/10/28 07:10:26;;;;;;;6.95;4.30;;;15.30;99.90;;;-141.84;75.05;18442.25;5044240;28;20292;-60
2022/10/28 07:12:54;;;;;;;12.10;4.82;;;15.40;99.90;;;-141.84;74.55;18482.88;5032926;28;20237;-61
2022/10/28 07:15:23;;;;;;;6.47;4.60;;;15.50;99.90;;;-141.84;73.54;18574.28;5032854;28;20723;-59
2022/10/28 07:17:54;;;;;;;8.23;4.43;;;15.60;99.90;;;-141.84;72.87;18582.44;5033061;28;20233;-59
2022/10/28 07:20:24;;;;;;;6.10;4.03;;;15.80;99.90;;;-141.84;71.63;18639.31;5032757;28;20248;-59
2022/10/28 07:22:57;;;;;;;6.07;4.28;;;16.00;99.90;;;-141.84;71.60;18708.41;5033427;28;20682;-59
2022/10/28 07:25:26;;;;;;;6.65;4.80;;;16.10;99.90;;;-141.84;70.97;18688.06;5032990;28;20242;-59
2022/10/28 07:27:54;;;;;;;6.25;4.25;;;16.10;99.90;;;-141.84;70.41;18732.78;5033047;28;20234;-60
2022/10/28 07:30:22;;;;;;;5.38;4.18;;;16.30;99.90;;;-141.84;69.80;18734.81;5032223;28;20233;-60
2022/10/28 07:32:50;;;;;;;8.77;4.45;;;16.40;99.90;;;-141.84;69.69;18795.75;5032960;28;20258;-61
2022/10/28 07:35:19;;;;;;;7.40;4.47;;;16.40;99.90;;;-141.84;70.13;18816.06;5032042;28;20305;-60
2022/10/28 07:37:47;;;;;;;5.40;3.72;;;16.50;99.90;;;-141.84;69.75;18848.59;5049360;28;20205;-60
2022/10/28 07:40:18;;;;;;;5.88;4.10;;;16.70;99.90;;;-141.84;68.78;18860.78;5052335;28;20229;-59
2022/10/28 07:42:46;;;;;;;6.40;4.22;;;16.70;99.90;;;-141.84;69.28;18885.16;5052686;28;20248;-58
2022/10/28 07:45:14;;;;;;;8.75;4.00;;;16.70;99.90;;;-141.84;69.48;18832.34;5043581;28;20226;-60
2022/10/28 07:47:43;;;;;;;7.18;3.60;;;16.70;99.90;;;-141.84;69.80;18875.00;5032106;28;20667;-60
2022/10/28 07:50:12;;;;;;;7.15;3.88;;;16.70;99.90;;;-141.84;70.17;18856.72;5032166;28;20628;-60
2022/10/28 07:52:41;;;;;;;4.50;3.67;;;16.70;99.90;;;-141.84;70.11;18870.94;5031767;28;20233;-58
2022/10/28 07:55:11;;;;;;;5.28;4.10;;;16.70;99.90;;;-141.84;70.08;18883.13;5030354;28;20634;-59
2022/10/28 07:57:40;;;;;;;6.03;4.45;;;16.70;99.90;;;-141.84;69.12;18982.69;5027793;28;20226;-60
2022/10/28 08:00:10;;;;;;;8.25;4.50;;;16.80;99.90;;;-141.84;69.51;18879.06;5030093;28;20279;-60
2022/10/28 08:02:38;;;;;;;9.63;4.68;;;16.80;99.90;;;-141.84;69.35;18944.09;5011389;28;20222;-61
2022/10/28 08:05:07;;;;;;;7.45;4.70;;;16.80;99.90;;;-141.84;69.52;18958.31;5029243;28;20554;-60
2022/10/28 08:07:35;;;;;;;9.07;4.80;;;16.80;99.90;;;-141.84;69.27;18984.72;5029662;28;20712;-61
2022/10/28 08:10:07;;;;;;;6.13;4.05;;;16.90;99.90;;;-141.84;68.20;19007.06;5036312;28;20222;-61
2022/10/28 08:12:35;;;;;;;6.75;4.63;;;17.00;99.90;;;-141.84;68.18;18994.88;5031068;28;20284;-60
2022/10/28 08:15:08;;;;;;;7.47;4.43;;;17.00;99.90;;;-141.84;68.63;19031.47;5031331;28;20230;-61
2022/10/28 08:17:36;;;;;;;5.50;3.90;;;16.90;99.90;;;-141.84;68.80;19009.09;5031812;28;20474;-60
2022/10/28 08:20:05;;;;;;;6.78;4.57;;;17.00;99.90;;;-141.84;68.35;19045.69;5032270;28;20210;-61
2022/10/28 08:22:33;;;;;;;7.35;4.75;;;17.00;99.90;;;-141.84;68.81;19035.53;5031660;28;20352;-60
2022/10/28 08:25:01;;;;;;;6.88;4.60;;;17.00;99.90;;;-141.84;69.17;19037.56;5031214;28;20268;-59
2022/10/28 08:27:29;;;;;;;5.90;4.13;;;17.00;99.90;;;-141.84;68.31;19094.44;5029484;28;20228;-60
2022/10/28 08:29:57;;;;;;;8.70;4.93;;;17.10;99.90;;;-141.84;68.42;19080.22;5030956;28;20221;-59
2022/10/28 08:32:26;;;;;;;7.93;4.32;;;17.00;99.90;;;-141.84;68.35;19100.53;5030988;28;20300;-58
2022/10/28 08:34:54;;;;;;;7.82;4.40;;;17.00;99.90;;;-141.84;68.31;19070.06;5030624;28;20233;-58
2022/10/28 08:37:22;;;;;;;6.10;4.15;;;17.00;99.90;;;-141.84;69.22;19025.38;5036533;28;20272;-58
2022/10/28 08:39:50;;;;;;;8.50;4.70;;;17.00;99.90;;;-141.84;69.57;19057.88;5029284;28;20794;-60
2022/10/28 08:42:37;;;;;;;7.13;4.50;;;16.90;99.90;;;-141.84;70.59;19011.13;5030744;28;20234;-59
2022/10/28 08:45:24;;;;;;;7.43;4.60;;;16.90;99.90;;;-141.84;70.01;19043.66;5030996;28;20295;-60
2022/10/28 08:48:11;;;;;;;7.20;4.50;;;16.90;99.90;;;-141.84;70.36;19021.31;5029793;28;20778;-60
2022/10/28 08:50:50;;;;;;;8.40;4.85;;;16.90;99.90;;;-141.84;70.34;19021.31;5028234;28;20225;-60
2022/10/28 08:53:24;;;;;;;10.88;5.13;;;16.90;99.90;;;-141.84;69.93;19063.97;5031622;28;20230;-61
2022/10/28 08:56:13;;;;;;;8.95;4.82;;;16.90;99.90;;;-141.84;70.02;19031.47;5032259;28;20222;-60
2022/10/28 08:58:45;;;;;;;9.65;4.97;;;16.90;99.90;;;-141.84;70.17;19080.22;5031415;28;20237;-60
2022/10/28 09:01:30;;;;;;;8.55;4.28;;;17.00;99.90;;;-141.84;69.83;19092.41;5030580;28;20226;-61
2022/10/28 09:04:11;;;;;;;6.15;4.60;;;17.00;99.90;;;-141.84;69.41;19088.34;5031205;28;20261;-62
2022/10/28 09:06:39;;;;;;;8.13;5.10;;;17.10;99.90;;;-141.84;68.17;19114.78;5038705;28;20229;-60
2022/10/28 09:09:10;;;;;;;6.97;4.80;;;17.10;99.90;;;-141.84;67.99;19167.59;5051113;28;20263;-59
2022/10/28 09:12:01;;;;;;;5.13;4.30;;;17.30;99.90;;;-141.84;67.81;19187.91;5032083;28;20689;-59
2022/10/28 09:15:00;;;;;;;6.57;4.60;;;17.40;99.90;;;-141.84;67.71;19187.91;5031339;28;20635;-58
2022/10/28 09:17:42;;;;;;;8.88;4.35;;;17.50;99.90;;;-141.84;66.96;19232.63;5030752;28;20228;-59
2022/10/28 09:20:19;;;;;;;6.95;4.50;;;17.50;99.90;;;-141.84;66.70;19277.34;5031431;28;20221;-60
2022/10/28 09:22:57;;;;;;;8.20;4.95;;;17.60;99.90;;;-141.84;67.17;19212.31;5031394;28;20227;-59
2022/10/28 09:25:40;;;;;;;10.40;4.45;;;17.60;99.90;;;-141.84;66.44;19317.97;5031233;28;20233;-60
2022/10/28 09:28:30;;;;;;;6.13;4.57;;;17.70;99.90;;;-141.84;64.97;19391.13;5030731;28;20656;-59
2022/10/28 09:31:08;;;;;;;7.78;4.30;;;18.00;99.90;;;-141.84;64.87;19393.16;5030836;28;20225;-59
2022/10/28 09:33:51;;;;;;;6.45;4.25;;;18.10;99.90;;;-141.84;63.44;19484.59;5030825;28;20279;-60
2022/10/28 09:36:29;;;;;;;6.15;3.85;;;18.40;99.90;;;-141.84;62.82;19592.31;5035593;28;20229;-59
2022/10/28 09:39:01;;;;;;;6.38;3.90;;;18.70;99.90;;;-141.84;61.55;19630.94;5050626;28;20228;-59
2022/10/28 09:41:36;;;;;;;7.32;4.28;;;18.90;99.90;;;-141.84;61.65;19651.25;5050465;28;20693;-59
2022/10/28 09:44:15;;;;;;;6.15;3.90;;;19.00;99.90;;;-141.84;61.51;19663.44;5032053;28;20253;-60
2022/10/28 09:46:47;;;;;;;5.78;4.00;;;19.10;99.90;;;-141.84;61.22;19695.97;5030795;28;20280;-61
2022/10/28 09:49:23;;;;;;;7.30;4.10;;;19.10;99.90;;;-141.84;61.77;19691.91;5030240;28;20230;-59
2022/10/28 09:52:03;;;;;;;7.97;4.32;;;19.00;99.90;;;-141.84;62.63;19643.13;5030593;28;20233;-59
2022/10/28 09:54:37;;;;;;;6.43;3.95;;;19.00;99.90;;;-141.84;62.88;19639.06;5030604;28;20229;-60
2022/10/28 09:57:06;;;;;;;7.20;4.20;;;18.80;99.90;;;-141.84;63.42;19643.13;5030562;28;20704;-59
2022/10/28 09:59:34;;;;;;;7.10;3.30;;;18.80;99.90;;;-141.84;63.60;19663.44;5030491;28;20205;-60
2022/10/28 10:02:04;;;;;;;6.55;4.05;;;18.90;99.90;;;-141.84;63.27;19726.44;5034530;28;20304;-58
2022/10/28 10:04:34;;;;;;;11.50;4.60;;;18.90;99.90;;;-141.84;62.49;19704.09;5033957;28;20246;-58
2022/10/28 10:07:13;;;;;;;6.38;3.97;;;19.00;99.90;;;-141.84;62.11;19728.47;5045385;28;20278;-59
2022/10/28 10:09:44;;;;;;;8.77;3.72;;;19.10;99.90;;;-141.84;61.78;19783.34;5054448;28;20302;-61
2022/10/28 10:12:13;;;;;;;7.93;3.88;;;19.30;99.90;;;-141.84;62.39;19771.16;5054406;28;20233;-58
2022/10/28 10:14:47;;;;;;;7.82;4.30;;;19.20;99.90;;;-141.84;62.25;19761.00;5054210;28;20229;-59
2022/10/28 10:17:21;;;;;;;7.63;3.60;;;19.10;99.90;;;-141.84;62.64;19744.75;5054330;28;20271;-59
2022/10/28 10:20:02;;;;;;;8.88;4.00;;;19.00;99.90;;;-141.84;62.86;19720.34;5054233;28;20656;-59
2022/10/28 10:22:35;;;;;;;8.80;3.85;;;19.00;99.90;;;-141.84;63.44;19754.91;5054076;28;20237;-59
2022/10/28 10:25:21;;;;;;;5.30;3.67;;;18.90;99.90;;;-141.84;63.64;19712.22;5054163;28;20486;-61
2022/10/28 10:27:52;;;;;;;6.05;3.75;;;18.90;99.90;;;-141.84;63.70;19740.69;5054057;28;20758;-58